sensor_id;sensor_type;location;lat;lon;timestamp;temperature;humidity
18002;DHT22;9126;48.160;17.130;2022-07-30T00:02:26;25.80;52.50
18002;DHT22;9126;48.160;17.130;2022-07-30T00:04:55;25.80;52.40
18002;DHT22;9126;48.160;17.130;2022-07-30T00:07:22;25.80;52.40
18002;DHT22;9126;48.160;17.130;2022-07-30T00:09:49;25.80;52.30
18002;DHT22;9126;48.160;17.130;2022-07-30T00:12:16;25.90;52.40
18002;DHT22;9126;48.160;17.130;2022-07-30T00:14:43;25.80;52.20
18002;DHT22;9126;48.160;17.130;2022-07-30T00:17:10;25.70;52.20
18002;DHT22;9126;48.160;17.130;2022-07-30T00:19:37;25.70;52.30
18002;DHT22;9126;48.160;17.130;2022-07-30T00:22:05;25.70;52.30
18002;DHT22;9126;48.160;17.130;2022-07-30T00:24:32;25.70;52.20
18002;DHT22;9126;48.160;17.130;2022-07-30T00:27:02;25.80;52.20
18002;DHT22;9126;48.160;17.130;2022-07-30T00:29:29;25.80;52.10
18002;DHT22;9126;48.160;17.130;2022-07-30T00:31:56;25.70;52.10
18002;DHT22;9126;48.160;17.130;2022-07-30T00:34:23;25.70;52.00
18002;DHT22;9126;48.160;17.130;2022-07-30T00:36:50;25.70;52.10
18002;DHT22;9126;48.160;17.130;2022-07-30T00:39:19;25.40;52.10
18002;DHT22;9126;48.160;17.130;2022-07-30T00:41:53;25.20;52.60
18002;DHT22;9126;48.160;17.130;2022-07-30T00:44:21;25.00;53.30
18002;DHT22;9126;48.160;17.130;2022-07-30T00:46:48;24.90;54.40
18002;DHT22;9126;48.160;17.130;2022-07-30T00:49:15;24.80;54.20
18002;DHT22;9126;48.160;17.130;2022-07-30T00:51:42;24.80;54.50
18002;DHT22;9126;48.160;17.130;2022-07-30T00:54:09;24.80;54.50
18002;DHT22;9126;48.160;17.130;2022-07-30T00:56:38;24.80;54.60
18002;DHT22;9126;48.160;17.130;2022-07-30T00:59:05;24.80;54.90
18002;DHT22;9126;48.160;17.130;2022-07-30T01:01:34;24.80;55.20
18002;DHT22;9126;48.160;17.130;2022-07-30T01:04:01;24.80;55.50
18002;DHT22;9126;48.160;17.130;2022-07-30T01:06:28;24.70;56.00
18002;DHT22;9126;48.160;17.130;2022-07-30T01:08:56;24.80;56.50
18002;DHT22;9126;48.160;17.130;2022-07-30T01:11:27;24.80;56.90
18002;DHT22;9126;48.160;17.130;2022-07-30T01:13:58;24.80;57.20
18002;DHT22;9126;48.160;17.130;2022-07-30T01:16:26;24.80;57.30
18002;DHT22;9126;48.160;17.130;2022-07-30T01:18:54;24.90;57.40
18002;DHT22;9126;48.160;17.130;2022-07-30T01:21:40;24.90;57.40
18002;DHT22;9126;48.160;17.130;2022-07-30T01:24:17;25.00;57.30
18002;DHT22;9126;48.160;17.130;2022-07-30T01:26:48;25.00;57.20
18002;DHT22;9126;48.160;17.130;2022-07-30T01:29:16;25.10;57.10
18002;DHT22;9126;48.160;17.130;2022-07-30T01:31:45;25.00;57.00
18002;DHT22;9126;48.160;17.130;2022-07-30T01:34:14;24.90;57.30
18002;DHT22;9126;48.160;17.130;2022-07-30T01:36:43;24.90;57.50
18002;DHT22;9126;48.160;17.130;2022-07-30T01:39:12;24.90;57.70
18002;DHT22;9126;48.160;17.130;2022-07-30T01:41:41;24.90;58.00
18002;DHT22;9126;48.160;17.130;2022-07-30T01:44:11;24.70;58.20
18002;DHT22;9126;48.160;17.130;2022-07-30T01:46:39;24.70;58.40
18002;DHT22;9126;48.160;17.130;2022-07-30T01:49:07;24.70;58.70
18002;DHT22;9126;48.160;17.130;2022-07-30T01:51:36;24.60;58.80
18002;DHT22;9126;48.160;17.130;2022-07-30T01:54:06;24.60;59.00
18002;DHT22;9126;48.160;17.130;2022-07-30T01:56:34;24.60;59.10
18002;DHT22;9126;48.160;17.130;2022-07-30T01:59:04;24.50;59.20
18002;DHT22;9126;48.160;17.130;2022-07-30T02:01:35;24.30;59.50
18002;DHT22;9126;48.160;17.130;2022-07-30T02:04:03;24.30;59.90
18002;DHT22;9126;48.160;17.130;2022-07-30T02:06:33;24.30;59.90
18002;DHT22;9126;48.160;17.130;2022-07-30T02:09:04;24.40;60.00
18002;DHT22;9126;48.160;17.130;2022-07-30T02:11:36;24.40;60.00
18002;DHT22;9126;48.160;17.130;2022-07-30T02:14:27;24.30;60.00
18002;DHT22;9126;48.160;17.130;2022-07-30T02:16:56;24.30;60.10
18002;DHT22;9126;48.160;17.130;2022-07-30T02:19:32;24.20;60.30
18002;DHT22;9126;48.160;17.130;2022-07-30T02:22:04;24.20;61.20
18002;DHT22;9126;48.160;17.130;2022-07-30T02:24:33;24.10;60.80
18002;DHT22;9126;48.160;17.130;2022-07-30T02:27:05;24.00;61.20
18002;DHT22;9126;48.160;17.130;2022-07-30T02:29:35;23.90;61.50
18002;DHT22;9126;48.160;17.130;2022-07-30T02:32:08;23.80;62.10
18002;DHT22;9126;48.160;17.130;2022-07-30T02:34:38;23.70;62.20
18002;DHT22;9126;48.160;17.130;2022-07-30T02:37:07;23.70;62.40
18002;DHT22;9126;48.160;17.130;2022-07-30T02:39:37;23.60;62.60
18002;DHT22;9126;48.160;17.130;2022-07-30T02:42:06;23.60;63.50
18002;DHT22;9126;48.160;17.130;2022-07-30T02:44:36;23.50;63.00
18002;DHT22;9126;48.160;17.130;2022-07-30T02:47:06;23.50;63.30
18002;DHT22;9126;48.160;17.130;2022-07-30T02:49:35;23.50;63.50
18002;DHT22;9126;48.160;17.130;2022-07-30T02:52:05;23.50;63.60
18002;DHT22;9126;48.160;17.130;2022-07-30T02:54:38;23.60;63.50
18002;DHT22;9126;48.160;17.130;2022-07-30T02:57:07;23.50;63.60
18002;DHT22;9126;48.160;17.130;2022-07-30T02:59:35;23.50;63.80
18002;DHT22;9126;48.160;17.130;2022-07-30T03:02:06;23.50;63.80
18002;DHT22;9126;48.160;17.130;2022-07-30T03:04:33;23.50;64.00
18002;DHT22;9126;48.160;17.130;2022-07-30T03:07:01;23.50;63.80
18002;DHT22;9126;48.160;17.130;2022-07-30T03:09:29;23.50;63.70
18002;DHT22;9126;48.160;17.130;2022-07-30T03:11:56;23.50;63.90
18002;DHT22;9126;48.160;17.130;2022-07-30T03:14:24;23.50;63.80
18002;DHT22;9126;48.160;17.130;2022-07-30T03:16:55;23.60;63.90
18002;DHT22;9126;48.160;17.130;2022-07-30T03:19:28;23.50;64.00
18002;DHT22;9126;48.160;17.130;2022-07-30T03:21:58;23.60;64.00
18002;DHT22;9126;48.160;17.130;2022-07-30T03:24:27;23.70;63.90
18002;DHT22;9126;48.160;17.130;2022-07-30T03:26:57;23.70;63.80
18002;DHT22;9126;48.160;17.130;2022-07-30T03:29:26;23.70;63.70
18002;DHT22;9126;48.160;17.130;2022-07-30T03:31:54;23.80;63.70
18002;DHT22;9126;48.160;17.130;2022-07-30T03:34:22;23.70;63.80
18002;DHT22;9126;48.160;17.130;2022-07-30T03:36:51;23.60;63.90
18002;DHT22;9126;48.160;17.130;2022-07-30T03:39:19;23.60;64.00
18002;DHT22;9126;48.160;17.130;2022-07-30T03:41:47;23.60;64.00
18002;DHT22;9126;48.160;17.130;2022-07-30T03:44:15;23.50;64.30
18002;DHT22;9126;48.160;17.130;2022-07-30T03:46:42;23.50;64.30
18002;DHT22;9126;48.160;17.130;2022-07-30T03:49:11;23.50;64.50
18002;DHT22;9126;48.160;17.130;2022-07-30T03:51:38;23.50;64.70
18002;DHT22;9126;48.160;17.130;2022-07-30T03:54:09;23.50;64.80
18002;DHT22;9126;48.160;17.130;2022-07-30T03:56:37;23.50;64.80
18002;DHT22;9126;48.160;17.130;2022-07-30T03:59:06;23.40;64.90
18002;DHT22;9126;48.160;17.130;2022-07-30T04:01:34;23.40;65.10
18002;DHT22;9126;48.160;17.130;2022-07-30T04:04:04;23.20;65.40
18002;DHT22;9126;48.160;17.130;2022-07-30T04:06:32;23.20;65.60
18002;DHT22;9126;48.160;17.130;2022-07-30T04:09:04;23.20;65.70
18002;DHT22;9126;48.160;17.130;2022-07-30T04:11:34;23.20;65.80
18002;DHT22;9126;48.160;17.130;2022-07-30T04:14:01;23.20;65.90
18002;DHT22;9126;48.160;17.130;2022-07-30T04:16:36;23.20;65.80
18002;DHT22;9126;48.160;17.130;2022-07-30T04:19:09;23.20;65.60
18002;DHT22;9126;48.160;17.130;2022-07-30T04:21:39;23.20;65.40
18002;DHT22;9126;48.160;17.130;2022-07-30T04:24:08;23.20;65.40
18002;DHT22;9126;48.160;17.130;2022-07-30T04:26:37;23.30;65.30
18002;DHT22;9126;48.160;17.130;2022-07-30T04:29:06;23.30;65.30
18002;DHT22;9126;48.160;17.130;2022-07-30T04:31:36;23.30;65.20
18002;DHT22;9126;48.160;17.130;2022-07-30T04:34:04;23.40;65.10
18002;DHT22;9126;48.160;17.130;2022-07-30T04:36:32;23.20;65.30
18002;DHT22;9126;48.160;17.130;2022-07-30T04:39:00;23.20;65.70
18002;DHT22;9126;48.160;17.130;2022-07-30T04:41:27;23.10;65.90
18002;DHT22;9126;48.160;17.130;2022-07-30T04:43:56;23.10;66.10
18002;DHT22;9126;48.160;17.130;2022-07-30T04:46:23;23.20;66.10
18002;DHT22;9126;48.160;17.130;2022-07-30T04:48:50;23.40;65.70
18002;DHT22;9126;48.160;17.130;2022-07-30T04:51:22;23.60;65.40
18002;DHT22;9126;48.160;17.130;2022-07-30T04:53:50;23.60;65.20
18002;DHT22;9126;48.160;17.130;2022-07-30T04:56:20;23.80;64.80
18002;DHT22;9126;48.160;17.130;2022-07-30T04:58:47;23.80;64.50
18002;DHT22;9126;48.160;17.130;2022-07-30T05:01:23;24.10;64.30
18002;DHT22;9126;48.160;17.130;2022-07-30T05:03:51;24.20;63.70
18002;DHT22;9126;48.160;17.130;2022-07-30T05:06:19;24.30;63.30
18002;DHT22;9126;48.160;17.130;2022-07-30T05:08:46;24.40;63.00
18002;DHT22;9126;48.160;17.130;2022-07-30T05:11:14;24.50;62.70
18002;DHT22;9126;48.160;17.130;2022-07-30T05:13:42;24.40;62.30
18002;DHT22;9126;48.160;17.130;2022-07-30T05:16:09;24.40;62.40
18002;DHT22;9126;48.160;17.130;2022-07-30T05:18:38;24.40;62.40
18002;DHT22;9126;48.160;17.130;2022-07-30T05:21:06;24.60;62.20
18002;DHT22;9126;48.160;17.130;2022-07-30T05:23:34;24.70;61.70
18002;DHT22;9126;48.160;17.130;2022-07-30T05:26:01;24.70;61.40
18002;DHT22;9126;48.160;17.130;2022-07-30T05:28:28;24.70;61.30
18002;DHT22;9126;48.160;17.130;2022-07-30T05:30:55;24.50;61.20
18002;DHT22;9126;48.160;17.130;2022-07-30T05:33:22;24.60;61.30
18002;DHT22;9126;48.160;17.130;2022-07-30T05:35:51;24.50;61.30
18002;DHT22;9126;48.160;17.130;2022-07-30T05:38:18;24.50;61.30
18002;DHT22;9126;48.160;17.130;2022-07-30T05:40:45;24.60;61.20
18002;DHT22;9126;48.160;17.130;2022-07-30T05:43:12;24.60;61.60
18002;DHT22;9126;48.160;17.130;2022-07-30T05:45:40;24.80;60.80
18002;DHT22;9126;48.160;17.130;2022-07-30T05:48:07;25.00;60.50
18002;DHT22;9126;48.160;17.130;2022-07-30T05:50:34;25.00;60.40
18002;DHT22;9126;48.160;17.130;2022-07-30T05:53:02;25.10;60.20
18002;DHT22;9126;48.160;17.130;2022-07-30T05:55:29;25.20;59.90
18002;DHT22;9126;48.160;17.130;2022-07-30T05:57:56;25.20;59.70
18002;DHT22;9126;48.160;17.130;2022-07-30T06:00:23;25.10;60.20
18002;DHT22;9126;48.160;17.130;2022-07-30T06:02:50;25.10;59.60
18002;DHT22;9126;48.160;17.130;2022-07-30T06:05:17;25.10;59.70
18002;DHT22;9126;48.160;17.130;2022-07-30T06:07:45;25.10;59.60
18002;DHT22;9126;48.160;17.130;2022-07-30T06:10:14;25.00;59.60
18002;DHT22;9126;48.160;17.130;2022-07-30T06:12:41;24.60;60.00
18002;DHT22;9126;48.160;17.130;2022-07-30T06:15:09;24.20;60.80
18002;DHT22;9126;48.160;17.130;2022-07-30T06:17:40;23.90;61.60
18002;DHT22;9126;48.160;17.130;2022-07-30T06:20:09;23.70;62.40
18002;DHT22;9126;48.160;17.130;2022-07-30T06:22:36;23.50;63.20
18002;DHT22;9126;48.160;17.130;2022-07-30T06:25:04;23.20;63.70
18002;DHT22;9126;48.160;17.130;2022-07-30T06:27:33;23.10;64.50
18002;DHT22;9126;48.160;17.130;2022-07-30T06:30:01;23.00;64.80
18002;DHT22;9126;48.160;17.130;2022-07-30T06:32:29;22.90;65.40
18002;DHT22;9126;48.160;17.130;2022-07-30T06:34:56;22.70;65.90
18002;DHT22;9126;48.160;17.130;2022-07-30T06:37:23;22.70;66.40
18002;DHT22;9126;48.160;17.130;2022-07-30T06:39:50;22.60;67.50
18002;DHT22;9126;48.160;17.130;2022-07-30T06:42:17;22.50;67.30
18002;DHT22;9126;48.160;17.130;2022-07-30T06:44:45;22.40;67.90
18002;DHT22;9126;48.160;17.130;2022-07-30T06:47:12;22.30;68.60
18002;DHT22;9126;48.160;17.130;2022-07-30T06:49:40;22.20;69.20
18002;DHT22;9126;48.160;17.130;2022-07-30T06:52:07;22.30;70.30
18002;DHT22;9126;48.160;17.130;2022-07-30T06:54:34;22.30;70.00
18002;DHT22;9126;48.160;17.130;2022-07-30T06:57:01;22.30;70.50
18002;DHT22;9126;48.160;17.130;2022-07-30T06:59:28;22.30;70.60
18002;DHT22;9126;48.160;17.130;2022-07-30T07:01:56;22.30;70.60
18002;DHT22;9126;48.160;17.130;2022-07-30T07:04:23;22.40;70.50
18002;DHT22;9126;48.160;17.130;2022-07-30T07:06:50;22.40;70.50
18002;DHT22;9126;48.160;17.130;2022-07-30T07:09:17;22.50;70.50
18002;DHT22;9126;48.160;17.130;2022-07-30T07:11:44;22.50;70.50
18002;DHT22;9126;48.160;17.130;2022-07-30T07:14:11;22.50;70.70
18002;DHT22;9126;48.160;17.130;2022-07-30T07:16:38;22.50;70.80
18002;DHT22;9126;48.160;17.130;2022-07-30T07:19:07;22.50;70.90
18002;DHT22;9126;48.160;17.130;2022-07-30T07:21:34;22.50;70.90
18002;DHT22;9126;48.160;17.130;2022-07-30T07:24:01;22.40;71.00
18002;DHT22;9126;48.160;17.130;2022-07-30T07:26:30;22.40;71.30
18002;DHT22;9126;48.160;17.130;2022-07-30T07:28:57;22.40;71.60
18002;DHT22;9126;48.160;17.130;2022-07-30T07:31:24;22.50;71.60
18002;DHT22;9126;48.160;17.130;2022-07-30T07:33:52;22.40;71.60
18002;DHT22;9126;48.160;17.130;2022-07-30T07:36:34;22.40;71.80
18002;DHT22;9126;48.160;17.130;2022-07-30T07:39:04;22.40;72.10
18002;DHT22;9126;48.160;17.130;2022-07-30T07:41:38;22.40;72.20
18002;DHT22;9126;48.160;17.130;2022-07-30T07:44:13;22.60;72.20
18002;DHT22;9126;48.160;17.130;2022-07-30T07:46:43;22.70;72.00
18002;DHT22;9126;48.160;17.130;2022-07-30T07:49:10;22.80;71.70
18002;DHT22;9126;48.160;17.130;2022-07-30T07:51:38;22.80;71.40
18002;DHT22;9126;48.160;17.130;2022-07-30T07:54:06;22.80;71.20
18002;DHT22;9126;48.160;17.130;2022-07-30T07:56:35;22.70;71.00
18002;DHT22;9126;48.160;17.130;2022-07-30T07:59:02;22.80;71.00
18002;DHT22;9126;48.160;17.130;2022-07-30T08:01:32;22.90;71.00
18002;DHT22;9126;48.160;17.130;2022-07-30T08:04:02;22.90;70.80
18002;DHT22;9126;48.160;17.130;2022-07-30T08:06:30;23.00;70.60
18002;DHT22;9126;48.160;17.130;2022-07-30T08:08:59;23.10;70.50
18002;DHT22;9126;48.160;17.130;2022-07-30T08:11:27;23.20;70.30
18002;DHT22;9126;48.160;17.130;2022-07-30T08:13:56;23.20;70.00
18002;DHT22;9126;48.160;17.130;2022-07-30T08:16:25;23.20;69.90
18002;DHT22;9126;48.160;17.130;2022-07-30T08:18:56;23.20;70.00
18002;DHT22;9126;48.160;17.130;2022-07-30T08:21:23;23.30;70.00
18002;DHT22;9126;48.160;17.130;2022-07-30T08:23:51;23.50;69.50
18002;DHT22;9126;48.160;17.130;2022-07-30T08:26:19;23.60;69.10
18002;DHT22;9126;48.160;17.130;2022-07-30T08:28:49;23.80;68.50
18002;DHT22;9126;48.160;17.130;2022-07-30T08:31:20;23.90;68.00
18002;DHT22;9126;48.160;17.130;2022-07-30T08:33:47;24.00;67.50
18002;DHT22;9126;48.160;17.130;2022-07-30T08:36:15;24.10;67.20
18002;DHT22;9126;48.160;17.130;2022-07-30T08:38:44;24.10;66.90
18002;DHT22;9126;48.160;17.130;2022-07-30T08:41:16;24.20;66.70
18002;DHT22;9126;48.160;17.130;2022-07-30T08:43:47;24.20;66.50
18002;DHT22;9126;48.160;17.130;2022-07-30T08:46:17;24.20;66.30
18002;DHT22;9126;48.160;17.130;2022-07-30T08:48:44;24.10;66.20
18002;DHT22;9126;48.160;17.130;2022-07-30T08:51:14;24.20;66.30
18002;DHT22;9126;48.160;17.130;2022-07-30T08:53:45;24.20;66.20
18002;DHT22;9126;48.160;17.130;2022-07-30T08:56:13;24.30;66.30
18002;DHT22;9126;48.160;17.130;2022-07-30T08:58:41;24.30;66.00
18002;DHT22;9126;48.160;17.130;2022-07-30T09:01:09;24.50;65.80
18002;DHT22;9126;48.160;17.130;2022-07-30T09:03:37;24.50;65.50
18002;DHT22;9126;48.160;17.130;2022-07-30T09:06:05;24.60;65.20
18002;DHT22;9126;48.160;17.130;2022-07-30T09:08:32;24.70;65.00
18002;DHT22;9126;48.160;17.130;2022-07-30T09:11:00;24.80;64.70
18002;DHT22;9126;48.160;17.130;2022-07-30T09:13:31;24.80;64.40
18002;DHT22;9126;48.160;17.130;2022-07-30T09:16:03;24.90;64.20
18002;DHT22;9126;48.160;17.130;2022-07-30T09:18:36;24.90;64.00
18002;DHT22;9126;48.160;17.130;2022-07-30T09:21:18;24.80;63.80
18002;DHT22;9126;48.160;17.130;2022-07-30T09:23:55;24.90;63.70
18002;DHT22;9126;48.160;17.130;2022-07-30T09:26:22;24.90;63.60
18002;DHT22;9126;48.160;17.130;2022-07-30T09:28:49;24.90;63.50
18002;DHT22;9126;48.160;17.130;2022-07-30T09:31:17;24.90;63.40
18002;DHT22;9126;48.160;17.130;2022-07-30T09:33:46;25.00;63.20
18002;DHT22;9126;48.160;17.130;2022-07-30T09:36:17;25.00;63.20
18002;DHT22;9126;48.160;17.130;2022-07-30T09:38:46;25.10;63.10
18002;DHT22;9126;48.160;17.130;2022-07-30T09:41:14;25.10;62.80
18002;DHT22;9126;48.160;17.130;2022-07-30T09:43:44;25.30;62.70
18002;DHT22;9126;48.160;17.130;2022-07-30T09:46:11;25.30;62.20
18002;DHT22;9126;48.160;17.130;2022-07-30T09:48:42;25.40;62.00
18002;DHT22;9126;48.160;17.130;2022-07-30T09:51:17;25.60;61.70
18002;DHT22;9126;48.160;17.130;2022-07-30T09:53:55;25.60;61.30
18002;DHT22;9126;48.160;17.130;2022-07-30T09:56:24;25.70;61.00
18002;DHT22;9126;48.160;17.130;2022-07-30T09:58:52;25.80;60.80
18002;DHT22;9126;48.160;17.130;2022-07-30T10:01:19;25.80;60.80
18002;DHT22;9126;48.160;17.130;2022-07-30T10:03:46;25.80;60.60
18002;DHT22;9126;48.160;17.130;2022-07-30T10:06:14;25.90;60.40
18002;DHT22;9126;48.160;17.130;2022-07-30T10:08:43;26.00;60.30
18002;DHT22;9126;48.160;17.130;2022-07-30T10:11:12;25.90;60.10
18002;DHT22;9126;48.160;17.130;2022-07-30T10:13:40;26.00;60.00
18002;DHT22;9126;48.160;17.130;2022-07-30T10:16:08;26.00;60.00
18002;DHT22;9126;48.160;17.130;2022-07-30T10:18:36;26.00;59.80
18002;DHT22;9126;48.160;17.130;2022-07-30T10:21:06;25.90;59.90
18002;DHT22;9126;48.160;17.130;2022-07-30T10:23:34;25.90;59.90
18002;DHT22;9126;48.160;17.130;2022-07-30T10:26:02;25.90;59.80
18002;DHT22;9126;48.160;17.130;2022-07-30T10:28:30;26.00;59.80
18002;DHT22;9126;48.160;17.130;2022-07-30T10:30:58;26.00;59.60
18002;DHT22;9126;48.160;17.130;2022-07-30T10:33:27;26.10;59.60
18002;DHT22;9126;48.160;17.130;2022-07-30T10:35:55;26.20;59.60
18002;DHT22;9126;48.160;17.130;2022-07-30T10:38:26;26.30;59.60
18002;DHT22;9126;48.160;17.130;2022-07-30T10:40:57;26.10;59.50
18002;DHT22;9126;48.160;17.130;2022-07-30T10:43:51;25.80;59.60
18002;DHT22;9126;48.160;17.130;2022-07-30T10:46:32;25.70;59.90
18002;DHT22;9126;48.160;17.130;2022-07-30T10:49:12;25.40;60.20
18002;DHT22;9126;48.160;17.130;2022-07-30T10:51:45;25.40;60.80
18002;DHT22;9126;48.160;17.130;2022-07-30T10:54:37;25.70;60.90
18002;DHT22;9126;48.160;17.130;2022-07-30T10:57:05;26.20;60.30
18002;DHT22;9126;48.160;17.130;2022-07-30T11:00:11;26.50;59.90
18002;DHT22;9126;48.160;17.130;2022-07-30T11:02:39;26.60;59.40
18002;DHT22;9126;48.160;17.130;2022-07-30T11:05:27;26.70;59.10
18002;DHT22;9126;48.160;17.130;2022-07-30T11:08:30;26.60;59.00
18002;DHT22;9126;48.160;17.130;2022-07-30T11:10:58;26.60;58.80
18002;DHT22;9126;48.160;17.130;2022-07-30T11:13:50;26.40;58.70
18002;DHT22;9126;48.160;17.130;2022-07-30T11:16:20;26.20;59.00
18002;DHT22;9126;48.160;17.130;2022-07-30T11:19:05;26.30;59.20
18002;DHT22;9126;48.160;17.130;2022-07-30T11:21:33;26.30;59.20
18002;DHT22;9126;48.160;17.130;2022-07-30T11:24:01;26.20;59.30
18002;DHT22;9126;48.160;17.130;2022-07-30T11:26:51;26.20;59.50
18002;DHT22;9126;48.160;17.130;2022-07-30T11:29:35;26.10;59.30
18002;DHT22;9126;48.160;17.130;2022-07-30T11:32:23;26.20;59.30
18002;DHT22;9126;48.160;17.130;2022-07-30T11:34:52;26.40;59.10
18002;DHT22;9126;48.160;17.130;2022-07-30T11:37:54;26.50;59.10
18002;DHT22;9126;48.160;17.130;2022-07-30T11:40:22;26.60;58.90
18002;DHT22;9126;48.160;17.130;2022-07-30T11:42:50;26.70;58.90
18002;DHT22;9126;48.160;17.130;2022-07-30T11:45:22;27.00;58.70
18002;DHT22;9126;48.160;17.130;2022-07-30T11:47:55;27.10;58.30
18002;DHT22;9126;48.160;17.130;2022-07-30T11:50:24;27.60;57.90
18002;DHT22;9126;48.160;17.130;2022-07-30T11:52:52;28.00;57.30
18002;DHT22;9126;48.160;17.130;2022-07-30T11:55:24;28.20;56.80
18002;DHT22;9126;48.160;17.130;2022-07-30T11:57:52;28.20;56.40
18002;DHT22;9126;48.160;17.130;2022-07-30T12:00:19;28.20;56.10
18002;DHT22;9126;48.160;17.130;2022-07-30T12:02:47;28.20;55.90
18002;DHT22;9126;48.160;17.130;2022-07-30T12:05:22;28.00;55.80
18002;DHT22;9126;48.160;17.130;2022-07-30T12:07:49;27.70;55.80
18002;DHT22;9126;48.160;17.130;2022-07-30T12:10:18;27.60;55.90
18002;DHT22;9126;48.160;17.130;2022-07-30T12:12:46;27.70;56.10
18002;DHT22;9126;48.160;17.130;2022-07-30T12:15:28;27.80;56.10
18002;DHT22;9126;48.160;17.130;2022-07-30T12:17:56;28.00;55.80
18002;DHT22;9126;48.160;17.130;2022-07-30T12:20:24;28.00;55.40
18002;DHT22;9126;48.160;17.130;2022-07-30T12:22:51;28.10;54.90
18002;DHT22;9126;48.160;17.130;2022-07-30T12:25:19;28.30;54.50
18002;DHT22;9126;48.160;17.130;2022-07-30T12:27:47;28.60;54.30
18002;DHT22;9126;48.160;17.130;2022-07-30T12:30:15;28.60;53.90
18002;DHT22;9126;48.160;17.130;2022-07-30T12:32:43;28.70;53.90
18002;DHT22;9126;48.160;17.130;2022-07-30T12:35:11;28.90;53.90
18002;DHT22;9126;48.160;17.130;2022-07-30T12:37:40;29.20;53.50
18002;DHT22;9126;48.160;17.130;2022-07-30T12:40:27;29.50;53.20
18002;DHT22;9126;48.160;17.130;2022-07-30T12:42:54;29.50;52.50
18002;DHT22;9126;48.160;17.130;2022-07-30T12:45:28;29.70;52.20
18002;DHT22;9126;48.160;17.130;2022-07-30T12:47:56;29.90;51.60
18002;DHT22;9126;48.160;17.130;2022-07-30T12:50:24;30.20;51.30
18002;DHT22;9126;48.160;17.130;2022-07-30T12:52:54;30.40;51.10
18002;DHT22;9126;48.160;17.130;2022-07-30T12:55:32;30.10;51.10
18002;DHT22;9126;48.160;17.130;2022-07-30T12:58:00;29.70;50.90
18002;DHT22;9126;48.160;17.130;2022-07-30T13:00:30;29.10;51.20
18002;DHT22;9126;48.160;17.130;2022-07-30T13:02:58;28.80;51.80
18002;DHT22;9126;48.160;17.130;2022-07-30T13:05:46;28.70;52.90
18002;DHT22;9126;48.160;17.130;2022-07-30T13:08:15;28.70;52.70
18002;DHT22;9126;48.160;17.130;2022-07-30T13:10:56;28.80;52.80
18002;DHT22;9126;48.160;17.130;2022-07-30T13:13:24;29.00;52.80
18002;DHT22;9126;48.160;17.130;2022-07-30T13:15:59;29.00;52.70
18002;DHT22;9126;48.160;17.130;2022-07-30T13:18:27;29.00;52.70
18002;DHT22;9126;48.160;17.130;2022-07-30T13:20:55;29.10;52.60
18002;DHT22;9126;48.160;17.130;2022-07-30T13:23:24;29.00;52.60
18002;DHT22;9126;48.160;17.130;2022-07-30T13:25:52;29.20;52.40
18002;DHT22;9126;48.160;17.130;2022-07-30T13:28:19;29.50;52.30
18002;DHT22;9126;48.160;17.130;2022-07-30T13:30:47;29.90;52.00
18002;DHT22;9126;48.160;17.130;2022-07-30T13:33:14;30.30;51.30
18002;DHT22;9126;48.160;17.130;2022-07-30T13:35:41;30.40;50.80
18002;DHT22;9126;48.160;17.130;2022-07-30T13:38:08;30.50;50.40
18002;DHT22;9126;48.160;17.130;2022-07-30T13:40:39;30.60;50.20
18002;DHT22;9126;48.160;17.130;2022-07-30T13:43:07;30.70;50.00
18002;DHT22;9126;48.160;17.130;2022-07-30T13:45:35;30.90;49.70
18002;DHT22;9126;48.160;17.130;2022-07-30T13:48:02;30.90;49.40
18002;DHT22;9126;48.160;17.130;2022-07-30T13:50:29;30.80;49.20
18002;DHT22;9126;48.160;17.130;2022-07-30T13:52:57;30.90;48.90
18002;DHT22;9126;48.160;17.130;2022-07-30T13:55:25;31.00;48.60
18002;DHT22;9126;48.160;17.130;2022-07-30T13:57:54;30.80;48.40
18002;DHT22;9126;48.160;17.130;2022-07-30T14:00:21;30.70;48.40
18002;DHT22;9126;48.160;17.130;2022-07-30T14:02:49;30.70;48.50
18002;DHT22;9126;48.160;17.130;2022-07-30T14:05:17;30.80;48.40
18002;DHT22;9126;48.160;17.130;2022-07-30T14:07:44;30.90;48.30
18002;DHT22;9126;48.160;17.130;2022-07-30T14:10:11;30.90;48.20
18002;DHT22;9126;48.160;17.130;2022-07-30T14:12:38;30.80;48.20
18002;DHT22;9126;48.160;17.130;2022-07-30T14:15:08;30.50;48.40
18002;DHT22;9126;48.160;17.130;2022-07-30T14:17:35;30.20;48.70
18002;DHT22;9126;48.160;17.130;2022-07-30T14:20:03;30.00;49.30
18002;DHT22;9126;48.160;17.130;2022-07-30T14:22:30;29.80;48.70
18002;DHT22;9126;48.160;17.130;2022-07-30T14:24:58;29.80;48.80
18002;DHT22;9126;48.160;17.130;2022-07-30T14:27:25;29.70;49.10
18002;DHT22;9126;48.160;17.130;2022-07-30T14:29:52;29.40;49.30
18002;DHT22;9126;48.160;17.130;2022-07-30T14:32:21;29.20;49.60
18002;DHT22;9126;48.160;17.130;2022-07-30T14:34:48;29.20;50.00
18002;DHT22;9126;48.160;17.130;2022-07-30T14:37:15;29.20;50.70
18002;DHT22;9126;48.160;17.130;2022-07-30T14:39:42;29.00;50.30
18002;DHT22;9126;48.160;17.130;2022-07-30T14:42:10;28.90;50.60
18002;DHT22;9126;48.160;17.130;2022-07-30T14:44:37;28.70;50.90
18002;DHT22;9126;48.160;17.130;2022-07-30T14:47:04;28.50;51.30
18002;DHT22;9126;48.160;17.130;2022-07-30T14:49:33;28.30;51.70
18002;DHT22;9126;48.160;17.130;2022-07-30T14:52:00;28.20;52.10
18002;DHT22;9126;48.160;17.130;2022-07-30T14:54:27;28.00;52.40
18002;DHT22;9126;48.160;17.130;2022-07-30T14:56:56;27.80;52.80
18002;DHT22;9126;48.160;17.130;2022-07-30T14:59:23;27.60;53.10
18002;DHT22;9126;48.160;17.130;2022-07-30T15:01:51;27.40;53.30
18002;DHT22;9126;48.160;17.130;2022-07-30T15:04:19;27.30;53.30
18002;DHT22;9126;48.160;17.130;2022-07-30T15:06:47;27.30;53.50
18002;DHT22;9126;48.160;17.130;2022-07-30T15:09:14;27.20;53.50
18002;DHT22;9126;48.160;17.130;2022-07-30T15:11:41;26.90;53.60
18002;DHT22;9126;48.160;17.130;2022-07-30T15:14:12;26.90;53.90
18002;DHT22;9126;48.160;17.130;2022-07-30T15:16:41;26.80;54.10
18002;DHT22;9126;48.160;17.130;2022-07-30T15:19:08;26.80;54.50
18002;DHT22;9126;48.160;17.130;2022-07-30T15:21:36;26.70;54.70
18002;DHT22;9126;48.160;17.130;2022-07-30T15:24:05;26.70;55.00
18002;DHT22;9126;48.160;17.130;2022-07-30T15:26:32;26.80;55.10
18002;DHT22;9126;48.160;17.130;2022-07-30T15:28:59;26.70;55.90
18002;DHT22;9126;48.160;17.130;2022-07-30T15:31:26;26.90;55.60
18002;DHT22;9126;48.160;17.130;2022-07-30T15:33:53;27.00;55.30
18002;DHT22;9126;48.160;17.130;2022-07-30T15:36:20;27.20;55.10
18002;DHT22;9126;48.160;17.130;2022-07-30T15:38:47;27.70;54.70
18002;DHT22;9126;48.160;17.130;2022-07-30T15:41:16;27.80;54.10
18002;DHT22;9126;48.160;17.130;2022-07-30T15:43:43;27.90;53.50
18002;DHT22;9126;48.160;17.130;2022-07-30T15:46:13;27.90;53.30